createdAt,value
2018-03-07T00:00:01.789Z,97772.36
2018-03-07T00:03:03.030Z,97781.88
2018-03-07T00:06:04.980Z,97781.78
2018-03-07T00:09:06.198Z,97780.39
2018-03-07T00:12:07.462Z,97777.59
2018-03-07T00:15:08.704Z,97782.80
2018-03-07T00:18:09.919Z,97779.45
2018-03-07T00:21:11.149Z,97785.41
2018-03-07T00:24:12.390Z,97791.80
2018-03-07T00:27:14.354Z,97790.25
2018-03-07T00:30:15.573Z,97786.52
2018-03-07T00:33:16.824Z,97788.45
2018-03-07T00:36:18.048Z,97789.75
2018-03-07T00:39:20.016Z,97791.72
2018-03-07T00:42:21.220Z,97786.55
2018-03-07T00:45:22.445Z,97772.70
2018-03-07T00:48:24.452Z,97777.33
2018-03-07T00:51:25.649Z,97780.07
2018-03-07T00:54:26.897Z,97780.36
2018-03-07T00:57:28.116Z,97785.45
2018-03-07T01:00:30.114Z,97776.61
2018-03-07T01:03:31.336Z,97780.25
2018-03-07T01:06:32.568Z,97785.07
2018-03-07T01:09:33.786Z,97774.77
2018-03-07T01:12:35.763Z,97770.25
2018-03-07T01:15:37.730Z,97770.81
2018-03-07T01:18:38.940Z,97766.63
2018-03-07T01:21:40.143Z,97766.81
2018-03-07T01:24:41.372Z,97771.27
2018-03-07T01:27:42.600Z,97757.53
2018-03-07T01:30:44.540Z,97757.00
2018-03-07T01:33:45.754Z,97756.64
2018-03-07T01:36:46.953Z,97755.55
2018-03-07T01:39:48.208Z,97747.33
2018-03-07T01:42:49.432Z,97749.28
2018-03-07T01:45:50.645Z,97746.02
2018-03-07T01:48:52.601Z,97743.14
2018-03-07T01:52:00.057Z,97750.34
2018-03-07T01:55:01.262Z,97737.39
2018-03-07T01:58:02.473Z,97736.28
2018-03-07T02:01:03.677Z,97736.38
2018-03-07T02:04:04.949Z,97741.09
2018-03-07T02:07:06.165Z,97736.24
2018-03-07T02:10:07.389Z,97735.11
2018-03-07T02:13:08.598Z,97738.61
2018-03-07T02:16:09.812Z,97737.75
2018-03-07T02:19:18.068Z,97737.89
2018-03-07T02:22:19.279Z,97737.79
2018-03-07T02:25:20.481Z,97732.66
2018-03-07T02:28:21.698Z,97733.12
2018-03-07T02:31:22.901Z,97735.19
2018-03-07T02:34:24.121Z,97728.89
2018-03-07T02:37:25.370Z,97735.34
2018-03-07T02:40:28.100Z,97739.15
2018-03-07T02:43:29.306Z,97733.41
2018-03-07T02:46:30.489Z,97732.34
2018-03-07T02:49:32.434Z,97730.73
2018-03-07T02:52:33.655Z,97742.34
2018-03-07T02:55:34.854Z,97739.72
2018-03-07T02:58:36.092Z,97742.88
2018-03-07T03:01:37.303Z,97742.11
2018-03-07T03:04:38.561Z,97733.75
2018-03-07T03:07:39.777Z,97750.60
2018-03-07T03:10:41.002Z,97749.17
2018-03-07T03:13:42.965Z,97743.82
2018-03-07T03:16:44.183Z,97748.97
2018-03-07T03:19:45.421Z,97746.95
2018-03-07T03:22:47.405Z,97757.43
2018-03-07T03:25:48.608Z,97754.04
2018-03-07T03:28:49.830Z,97757.76
2018-03-07T03:31:51.063Z,97766.15
2018-03-07T03:34:52.290Z,97760.05
2018-03-07T03:37:53.508Z,97765.49
2018-03-07T03:40:55.460Z,97766.97
2018-03-07T03:43:56.673Z,97770.16
2018-03-07T03:46:57.888Z,97768.06
2018-03-07T03:49:59.107Z,97779.15
2018-03-07T03:53:00.352Z,97755.33
2018-03-07T03:56:01.616Z,97766.18
2018-03-07T03:59:03.568Z,97770.50
2018-03-07T04:02:04.779Z,97773.92
2018-03-07T04:05:05.968Z,97764.60
2018-03-07T04:08:07.193Z,97772.67
2018-03-07T04:11:08.473Z,97773.19
2018-03-07T04:14:09.706Z,97776.91
2018-03-07T04:17:10.970Z,97774.55
2018-03-07T04:20:14.155Z,97776.06
2018-03-07T04:23:16.116Z,97783.13
2018-03-07T04:26:17.323Z,97782.80
2018-03-07T04:29:18.555Z,97777.54
2018-03-07T04:32:19.764Z,97773.20
2018-03-07T04:35:20.986Z,97769.05
2018-03-07T04:38:22.962Z,97769.60
2018-03-07T04:41:26.060Z,97778.98
2018-03-07T04:44:27.368Z,97777.50
2018-03-07T04:47:28.665Z,97768.05
2018-03-07T04:50:29.938Z,97773.10
2018-03-07T04:53:31.204Z,97771.41
2018-03-07T04:56:32.444Z,97778.56
2018-03-07T04:59:33.705Z,97777.23
2018-03-07T05:02:35.002Z,97786.69
2018-03-07T05:05:36.251Z,97780.98
2018-03-07T05:08:37.589Z,97783.53
2018-03-07T05:11:38.833Z,97780.77
2018-03-07T05:14:40.097Z,97775.81
2018-03-07T05:17:41.309Z,97787.47
2018-03-07T05:20:42.621Z,97785.91
2018-03-07T05:23:43.880Z,97790.89
2018-03-07T05:26:45.070Z,97788.77
2018-03-07T05:29:46.289Z,97783.28
2018-03-07T05:32:48.301Z,97795.16
2018-03-07T05:35:49.515Z,97793.30
2018-03-07T05:38:50.736Z,97790.27
2018-03-07T05:41:52.678Z,97791.52
2018-03-07T05:44:54.627Z,97790.67
2018-03-07T05:47:55.844Z,97793.00
2018-03-07T05:50:57.081Z,97790.70
2018-03-07T05:53:58.313Z,97798.40
2018-03-07T05:56:59.539Z,97795.42
2018-03-07T06:00:00.774Z,97809.64
2018-03-07T06:03:02.722Z,97813.97
2018-03-07T06:06:03.938Z,97803.27
2018-03-07T06:09:05.169Z,97813.89
2018-03-07T06:12:07.161Z,97815.89
2018-03-07T06:15:08.361Z,97824.75
2018-03-07T06:18:09.601Z,97813.01
2018-03-07T06:21:10.816Z,97815.02
2018-03-07T06:24:12.045Z,97828.29
2018-03-07T06:27:13.276Z,97833.40
2018-03-07T06:30:14.477Z,97838.14
2018-03-07T06:33:15.672Z,97833.46
2018-03-07T06:36:16.865Z,97836.00
2018-03-07T06:39:18.068Z,97841.44
2018-03-07T06:42:19.265Z,97848.91
2018-03-07T06:45:21.253Z,97837.92
2018-03-07T06:48:23.232Z,97850.22
2018-03-07T06:51:25.177Z,97850.47
2018-03-07T06:54:26.387Z,97861.37
2018-03-07T06:57:27.629Z,97848.56
2018-03-07T07:00:29.700Z,97857.13
2018-03-07T07:03:30.885Z,97854.14
2018-03-07T07:06:32.843Z,97856.88
2018-03-07T07:09:34.290Z,97857.88
2018-03-07T07:12:36.273Z,97855.00
2018-03-07T07:15:37.505Z,97862.40
2018-03-07T07:18:38.721Z,97862.21
2018-03-07T07:21:40.679Z,97863.86
2018-03-07T07:24:41.874Z,97876.93
2018-03-07T07:27:43.827Z,97879.44
2018-03-07T07:30:45.053Z,97863.44
2018-03-07T07:33:46.257Z,97867.90
2018-03-07T07:36:47.449Z,97870.79
2018-03-07T07:39:48.642Z,97875.56
2018-03-07T07:42:49.887Z,97875.31
2018-03-07T07:45:51.078Z,97876.66
2018-03-07T07:48:52.328Z,97871.70
2018-03-07T07:51:53.547Z,97877.93
2018-03-07T07:54:55.519Z,97881.55
2018-03-07T07:57:57.508Z,97876.84
2018-03-07T08:00:59.472Z,97876.88
2018-03-07T08:04:00.706Z,97876.00
2018-03-07T08:07:01.912Z,97871.28
2018-03-07T08:10:03.926Z,97874.17
2018-03-07T08:13:05.147Z,97872.30
2018-03-07T08:16:07.135Z,97869.30
2018-03-07T08:19:09.105Z,97852.47
2018-03-07T08:22:10.442Z,97856.22
2018-03-07T08:25:11.653Z,97846.74
2018-03-07T08:28:12.856Z,97861.55
2018-03-07T08:31:14.057Z,97860.46
2018-03-07T08:34:16.822Z,97862.66
2018-03-07T08:37:18.113Z,97857.47
2018-03-07T08:40:19.299Z,97864.34
2018-03-07T08:43:20.840Z,97878.60
2018-03-07T08:46:22.819Z,97872.68
2018-03-07T08:49:24.477Z,97869.08
2018-03-07T08:52:25.690Z,97871.34
2018-03-07T08:55:26.915Z,97872.81
2018-03-07T08:58:28.109Z,97891.06
2018-03-07T09:01:29.394Z,97881.91
2018-03-07T09:04:31.385Z,97895.17
2018-03-07T09:07:32.595Z,97893.86
2018-03-07T09:10:41.621Z,97898.40
2018-03-07T09:13:43.293Z,97901.45
2018-03-07T09:16:45.263Z,97911.01
2018-03-07T09:19:46.475Z,97905.20
2018-03-07T09:22:47.681Z,97903.02
2018-03-07T09:25:48.899Z,97902.78
2018-03-07T09:28:50.097Z,97917.34
2018-03-07T09:31:51.320Z,97907.08
2018-03-07T09:34:53.313Z,97908.20
2018-03-07T09:37:54.561Z,97923.73
2018-03-07T09:40:56.520Z,97914.77
2018-03-07T09:43:57.718Z,97910.72
2018-03-07T09:46:58.942Z,97916.36
2018-03-07T09:50:00.184Z,97915.77
2018-03-07T09:53:01.421Z,97921.80
2018-03-07T09:56:02.693Z,97915.28
2018-03-07T09:59:03.925Z,97918.13
2018-03-07T10:02:05.150Z,97911.00
2018-03-07T10:05:06.345Z,97908.80
2018-03-07T10:08:07.587Z,97918.89
2018-03-07T10:11:09.596Z,97918.44
2018-03-07T10:14:10.819Z,97911.16
2018-03-07T10:17:12.033Z,97919.61
2018-03-07T10:20:13.237Z,97918.67
2018-03-07T10:23:14.441Z,97919.58
2018-03-07T10:26:15.641Z,97915.22
2018-03-07T10:29:16.829Z,97914.23
2018-03-07T10:32:18.037Z,97921.42
2018-03-07T10:35:19.234Z,97941.01
2018-03-07T10:38:21.404Z,97935.11
2018-03-07T10:41:22.621Z,97948.67
2018-03-07T10:44:24.570Z,97948.01
2018-03-07T10:47:25.782Z,97945.88
2018-03-07T10:50:27.016Z,97960.45
2018-03-07T10:53:28.969Z,97955.17
2018-03-07T10:56:30.309Z,97957.47
2018-03-07T10:59:31.510Z,97954.78
2018-03-07T11:02:32.811Z,97958.08
2018-03-07T11:05:34.012Z,97954.81
2018-03-07T11:08:35.246Z,97967.12
2018-03-07T11:11:36.441Z,97953.95
2018-03-07T11:14:37.693Z,97955.95
2018-03-07T11:17:39.575Z,97955.83
2018-03-07T11:20:40.795Z,97960.42
2018-03-07T11:23:42.801Z,97961.23
2018-03-07T11:26:44.001Z,97964.41
2018-03-07T11:29:45.319Z,97956.25
2018-03-07T11:32:46.505Z,97957.67
2018-03-07T11:35:48.455Z,97963.37
2018-03-07T11:38:49.685Z,97964.72
2018-03-07T11:41:51.630Z,97970.66
2018-03-07T11:44:52.882Z,97974.70
2018-03-07T11:47:54.107Z,97973.77
2018-03-07T11:50:56.093Z,97974.65
2018-03-07T11:53:57.313Z,97970.19
2018-03-07T11:56:58.508Z,97963.10
2018-03-07T12:00:00.483Z,97961.44
2018-03-07T12:03:02.430Z,97969.67
2018-03-07T12:06:03.689Z,97973.05
2018-03-07T12:09:04.912Z,97973.75
2018-03-07T12:12:06.144Z,97972.89
2018-03-07T12:15:08.108Z,97972.87
2018-03-07T12:18:09.333Z,97984.11
2018-03-07T12:21:10.576Z,97968.34
2018-03-07T12:24:11.813Z,97967.45
2018-03-07T12:27:13.797Z,97968.75
2018-03-07T12:30:15.753Z,97963.70
2018-03-07T12:33:16.956Z,97972.16
2018-03-07T12:36:18.197Z,97980.22
2018-03-07T12:39:20.129Z,97976.88
2018-03-07T12:42:21.390Z,97978.23
2018-03-07T12:45:22.610Z,97968.61
2018-03-07T12:48:24.569Z,97977.54
2018-03-07T12:51:25.818Z,97968.30
2018-03-07T12:54:27.009Z,97971.48
2018-03-07T12:57:28.953Z,97981.00
2018-03-07T13:00:30.178Z,97975.91
2018-03-07T13:03:31.384Z,97976.95
2018-03-07T13:06:32.602Z,97974.45
2018-03-07T13:09:33.797Z,97972.00
2018-03-07T13:12:35.784Z,97977.12
2018-03-07T13:15:37.001Z,97969.83
2018-03-07T13:18:38.279Z,97974.39
2018-03-07T13:21:39.474Z,97973.86
2018-03-07T13:24:40.708Z,97973.78
2018-03-07T13:27:41.928Z,97981.46
2018-03-07T13:30:43.876Z,97971.77
2018-03-07T13:33:45.090Z,97973.33
2018-03-07T13:36:46.301Z,97967.95
2018-03-07T13:39:47.504Z,97970.45
2018-03-07T13:42:49.484Z,97965.77
2018-03-07T13:45:51.440Z,97977.69
2018-03-07T13:48:59.737Z,97974.27
2018-03-07T13:52:00.941Z,97975.16
2018-03-07T13:55:02.908Z,97973.44
2018-03-07T13:58:04.146Z,97980.78
2018-03-07T14:01:05.368Z,97982.41
2018-03-07T14:04:06.600Z,97981.53
2018-03-07T14:07:07.885Z,97988.32
2018-03-07T14:10:09.824Z,97982.05
2018-03-07T14:13:11.048Z,97984.59
2018-03-07T14:16:12.246Z,97983.23
2018-03-07T14:19:13.466Z,97978.86
2018-03-07T14:22:14.680Z,97977.77
2018-03-07T14:25:15.893Z,97977.39
2018-03-07T14:28:17.093Z,97976.11
2018-03-07T14:31:18.293Z,97976.39
2018-03-07T14:34:20.234Z,97972.67
2018-03-07T14:37:21.465Z,97972.00
2018-03-07T14:40:22.700Z,97975.30
2018-03-07T14:43:24.663Z,97985.02
2018-03-07T14:46:26.606Z,97978.98
2018-03-07T14:49:27.814Z,97984.70
2018-03-07T14:52:29.017Z,97978.16
2018-03-07T14:55:30.213Z,97982.63
2018-03-07T14:58:31.413Z,97983.73
2018-03-07T15:01:32.641Z,97980.55
2018-03-07T15:04:33.833Z,97983.65
2018-03-07T15:07:35.792Z,97990.50
2018-03-07T15:10:36.999Z,97987.63
2018-03-07T15:13:38.197Z,97987.17
2018-03-07T15:16:39.393Z,97985.66
2018-03-07T15:19:41.358Z,97989.91
2018-03-07T15:22:43.332Z,97991.43
2018-03-07T15:25:44.541Z,97998.61
2018-03-07T15:28:45.765Z,97981.81
2018-03-07T15:31:47.728Z,97993.80
2018-03-07T15:34:48.909Z,97990.08
2018-03-07T15:37:50.849Z,98000.19
2018-03-07T15:40:52.046Z,97995.43
2018-03-07T15:43:54.019Z,98005.69
2018-03-07T15:46:55.249Z,98009.09
2018-03-07T15:49:56.495Z,98008.59
2018-03-07T15:52:57.703Z,98016.88
2018-03-07T15:55:58.924Z,98017.36
2018-03-07T15:59:00.152Z,98016.64
2018-03-07T16:02:02.106Z,98020.94
2018-03-07T16:05:03.341Z,98016.16
2018-03-07T16:08:04.569Z,98024.13
2018-03-07T16:11:05.788Z,98023.03
2018-03-07T16:14:07.008Z,98034.30
2018-03-07T16:17:08.258Z,98034.12
2018-03-07T16:20:09.430Z,98031.55
2018-03-07T16:23:10.666Z,98034.53
2018-03-07T16:26:12.627Z,98036.06
2018-03-07T16:29:13.829Z,98036.48
2018-03-07T16:32:15.026Z,98032.16
2018-03-07T16:35:16.236Z,98038.21
2018-03-07T16:38:18.201Z,98050.73
2018-03-07T16:41:20.164Z,98047.77
2018-03-07T16:44:21.399Z,98058.19
2018-03-07T16:47:22.645Z,98058.48
2018-03-07T16:50:23.846Z,98048.31
2018-03-07T16:53:25.068Z,98055.02
2018-03-07T16:56:26.373Z,98068.16
2018-03-07T16:59:27.879Z,98053.81
2018-03-07T17:02:29.124Z,98060.80
2018-03-07T17:05:30.332Z,98063.83
2018-03-07T17:08:31.556Z,98061.84
2018-03-07T17:11:33.509Z,98058.89
2018-03-07T17:14:34.724Z,98060.75
2018-03-07T17:17:35.922Z,98068.69
2018-03-07T17:20:37.119Z,98060.80
2018-03-07T17:23:39.062Z,98067.58
2018-03-07T17:26:40.993Z,98078.44
2018-03-07T17:29:42.227Z,98079.19
2018-03-07T17:32:43.464Z,98090.23
2018-03-07T17:35:44.657Z,98090.13
2018-03-07T17:38:46.684Z,98092.98
2018-03-07T17:41:47.881Z,98081.26
2018-03-07T17:44:49.109Z,98088.35
2018-03-07T17:47:50.372Z,98094.00
2018-03-07T17:50:51.829Z,98099.27
2018-03-07T17:53:53.328Z,98097.66
2018-03-07T18:00:24.699Z,98101.78
2018-03-07T18:03:25.908Z,98101.98
2018-03-07T18:06:27.140Z,98102.23
2018-03-07T18:09:28.333Z,98111.06
2018-03-07T18:12:29.537Z,98102.41
2018-03-07T18:15:31.527Z,98109.02
2018-03-07T18:18:32.729Z,98112.86
2018-03-07T18:21:35.193Z,98117.61
2018-03-07T18:24:36.890Z,98120.63
2018-03-07T18:27:38.325Z,98120.44
2018-03-07T18:30:40.084Z,98125.50
2018-03-07T18:33:41.353Z,98133.85
2018-03-07T18:36:43.044Z,98136.95
2018-03-07T18:39:44.738Z,98141.91
2018-03-07T18:42:46.396Z,98148.50
2018-03-07T18:45:47.856Z,98151.85
2018-03-07T18:48:49.476Z,98154.27
2018-03-07T18:51:52.642Z,98156.02
2018-03-07T18:54:53.956Z,98159.30
2018-03-07T18:57:55.317Z,98166.35
2018-03-07T19:00:57.581Z,98163.97
2018-03-07T19:03:59.356Z,98169.27
2018-03-07T19:07:01.522Z,98174.45
2018-03-07T19:10:02.972Z,98183.25
2018-03-07T19:13:04.460Z,98176.66
2018-03-07T19:16:05.653Z,98187.79
2018-03-07T19:19:07.449Z,98173.63
2018-03-07T19:22:09.834Z,98185.86
2018-03-07T19:25:11.536Z,98184.34
2018-03-07T19:28:13.044Z,98180.39
2018-03-07T19:31:14.554Z,98184.38
2018-03-07T19:34:17.004Z,98191.77
2018-03-07T19:37:18.630Z,98195.73
2018-03-07T19:40:19.973Z,98196.17
2018-03-07T19:43:21.204Z,98194.63
2018-03-07T19:46:23.248Z,98196.61
2018-03-07T19:49:24.474Z,98205.92
2018-03-07T19:52:25.774Z,98202.78
2018-03-07T19:55:27.280Z,98214.16
2018-03-07T19:58:28.658Z,98210.11
2018-03-07T20:01:29.884Z,98216.03
2018-03-07T20:04:31.609Z,98214.00
2018-03-07T20:07:34.196Z,98204.66
2018-03-07T20:10:36.246Z,98211.19
2018-03-07T20:13:37.914Z,98216.41
2018-03-07T20:16:39.135Z,98219.78
2018-03-07T20:19:40.783Z,98213.30
2018-03-07T20:22:42.486Z,98228.62
2018-03-07T20:25:44.155Z,98231.30
2018-03-07T20:28:45.883Z,98228.61
2018-03-07T20:31:47.409Z,98239.69
2018-03-07T20:34:48.632Z,98231.02
2018-03-07T20:37:50.107Z,98241.94
2018-03-07T20:40:51.845Z,98229.11
2018-03-07T20:43:53.084Z,98243.45
2018-03-07T20:46:54.352Z,98247.58
2018-03-07T20:49:55.822Z,98244.15
2018-03-07T20:52:57.408Z,98249.63
2018-03-07T20:55:58.645Z,98251.91
2018-03-07T20:59:01.440Z,98252.00
2018-03-07T21:02:03.184Z,98259.61
2018-03-07T21:05:04.923Z,98262.26
2018-03-07T21:08:06.490Z,98261.31
2018-03-07T21:11:08.080Z,98259.07
2018-03-07T21:14:09.514Z,98269.38
2018-03-07T21:17:10.908Z,98270.53
2018-03-07T21:20:12.121Z,98276.52
2018-03-07T21:23:14.073Z,98273.56
2018-03-07T21:26:15.303Z,98280.28
2018-03-07T21:29:16.510Z,98280.44
2018-03-07T21:32:17.768Z,98293.14
2018-03-07T21:35:19.016Z,98295.42
2018-03-07T21:38:20.239Z,98291.76
2018-03-07T21:41:21.432Z,98299.53
2018-03-07T21:44:22.642Z,98292.08
2018-03-07T21:47:24.584Z,98298.38
2018-03-07T21:50:25.833Z,98292.16
2018-03-07T21:53:27.049Z,98294.53
2018-03-07T21:56:28.261Z,98301.93
2018-03-07T21:59:30.224Z,98296.06
2018-03-07T22:02:31.450Z,98307.17
2018-03-07T22:05:33.398Z,98310.47
2018-03-07T22:08:34.598Z,98312.14
2018-03-07T22:11:35.867Z,98308.42
2018-03-07T22:14:37.061Z,98328.03
2018-03-07T22:17:38.269Z,98334.92
2018-03-07T22:20:47.280Z,98340.54
2018-03-07T22:23:48.501Z,98351.09
2018-03-07T22:26:49.717Z,98349.23
2018-03-07T22:29:50.925Z,98351.81
2018-03-07T22:32:52.129Z,98358.98
2018-03-07T22:35:53.348Z,98359.11
2018-03-07T22:38:54.567Z,98368.42
2018-03-07T22:41:55.761Z,98363.23
2018-03-07T22:44:56.954Z,98359.44
2018-03-07T22:47:58.189Z,98357.76
2018-03-07T22:50:59.377Z,98368.94
2018-03-07T22:54:00.630Z,98373.70
2018-03-07T22:57:01.862Z,98381.63
2018-03-07T23:00:12.970Z,98383.27
2018-03-07T23:03:14.191Z,98383.80
2018-03-07T23:06:15.412Z,98381.53
2018-03-07T23:09:16.633Z,98399.98
2018-03-07T23:12:18.583Z,98400.41
2018-03-07T23:15:19.795Z,98411.67
2018-03-07T23:18:21.028Z,98417.94
2018-03-07T23:21:22.248Z,98431.20
2018-03-07T23:24:23.482Z,98423.47
2018-03-07T23:27:24.723Z,98424.13
2018-03-07T23:30:26.679Z,98425.64
2018-03-07T23:33:29.380Z,98434.03
2018-03-07T23:36:30.592Z,98441.27
2018-03-07T23:39:31.849Z,98443.86
2018-03-07T23:42:33.080Z,98462.47
2018-03-07T23:45:34.301Z,98464.80
2018-03-07T23:48:35.527Z,98465.94
2018-03-07T23:51:37.449Z,98467.52
2018-03-07T23:54:38.682Z,98480.34
2018-03-07T23:57:39.917Z,98472.39
